createdAt,value
2018-05-06T00:00:37.136Z,99.90
2018-05-06T00:03:04.579Z,99.90
2018-05-06T00:05:32.294Z,99.90
2018-05-06T00:07:59.738Z,99.90
2018-05-06T00:10:27.195Z,99.90
2018-05-06T00:12:54.655Z,99.90
2018-05-06T00:15:22.115Z,99.90
2018-05-06T00:17:49.556Z,99.90
2018-05-06T00:20:17.023Z,99.90
2018-05-06T00:22:44.474Z,99.90
2018-05-06T00:25:11.923Z,99.90
2018-05-06T00:27:39.379Z,99.90
2018-05-06T00:30:06.825Z,99.90
2018-05-06T00:32:34.284Z,99.90
2018-05-06T00:35:01.741Z,99.90
2018-05-06T00:37:29.183Z,99.90
2018-05-06T00:39:56.629Z,99.90
2018-05-06T00:42:24.094Z,99.90
2018-05-06T00:44:52.019Z,99.90
2018-05-06T00:47:19.469Z,99.90
2018-05-06T00:49:46.910Z,99.90
2018-05-06T00:52:14.378Z,99.90
2018-05-06T00:54:44.534Z,99.90
2018-05-06T00:57:12.006Z,99.90
2018-05-06T00:59:39.447Z,99.90
2018-05-06T01:02:07.654Z,99.90
2018-05-06T01:04:36.058Z,99.90
2018-05-06T01:07:03.514Z,99.90
2018-05-06T01:09:31.092Z,99.90
2018-05-06T01:11:58.551Z,99.90
2018-05-06T01:14:26.007Z,99.90
2018-05-06T01:16:53.459Z,99.90
2018-05-06T01:19:20.910Z,99.90
2018-05-06T01:21:48.351Z,99.90
2018-05-06T01:24:15.806Z,99.90
2018-05-06T01:26:43.264Z,99.90
2018-05-06T01:29:10.704Z,99.90
2018-05-06T01:31:38.143Z,99.90
2018-05-06T01:34:05.598Z,99.90
2018-05-06T01:36:33.812Z,99.90
2018-05-06T01:39:01.254Z,99.90
2018-05-06T01:41:28.689Z,99.90
2018-05-06T01:43:56.142Z,99.90
2018-05-06T01:46:24.347Z,99.90
2018-05-06T01:48:51.805Z,99.90
2018-05-06T01:51:19.247Z,99.90
2018-05-06T01:53:46.694Z,99.90
2018-05-06T01:56:14.547Z,99.90
2018-05-06T01:58:42.750Z,99.90
2018-05-06T02:01:10.198Z,99.90
2018-05-06T02:03:37.659Z,99.90
2018-05-06T02:06:05.099Z,99.90
2018-05-06T02:08:32.533Z,99.90
2018-05-06T02:10:59.990Z,99.90
2018-05-06T02:13:27.434Z,99.90
2018-05-06T02:15:55.178Z,99.90
2018-05-06T02:18:22.627Z,99.90
2018-05-06T02:20:50.089Z,99.90
2018-05-06T02:23:17.534Z,99.90
2018-05-06T02:25:44.990Z,99.90
2018-05-06T02:28:12.432Z,99.90
2018-05-06T02:30:39.884Z,99.90
2018-05-06T02:33:07.443Z,99.90
2018-05-06T02:35:34.891Z,99.90
2018-05-06T02:38:03.105Z,99.90
2018-05-06T02:40:30.570Z,99.90
2018-05-06T02:42:58.015Z,99.90
2018-05-06T02:45:25.463Z,99.90
2018-05-06T02:47:52.918Z,99.90
2018-05-06T02:50:20.358Z,99.90
2018-05-06T02:52:47.804Z,99.90
2018-05-06T02:55:16.014Z,99.90
2018-05-06T02:57:43.450Z,99.90
2018-05-06T03:00:10.924Z,99.90
2018-05-06T03:02:38.365Z,99.90
2018-05-06T03:05:05.814Z,99.90
2018-05-06T03:07:34.019Z,99.90
2018-05-06T03:10:01.458Z,99.90
2018-05-06T03:12:28.918Z,99.90
2018-05-06T03:14:56.365Z,99.90
2018-05-06T03:17:23.810Z,99.90
2018-05-06T03:19:51.250Z,99.90
2018-05-06T03:22:19.461Z,99.90
2018-05-06T03:24:46.906Z,99.90
2018-05-06T03:27:14.352Z,99.90
2018-05-06T03:29:42.557Z,99.90
2018-05-06T03:32:10.007Z,99.90
2018-05-06T03:34:38.297Z,99.90
2018-05-06T03:37:05.751Z,99.90
2018-05-06T03:39:34.149Z,99.90
2018-05-06T03:42:01.589Z,99.90
2018-05-06T03:44:29.096Z,99.90
2018-05-06T03:46:56.535Z,99.90
2018-05-06T03:49:23.985Z,99.90
2018-05-06T03:51:51.427Z,99.90
2018-05-06T03:54:19.506Z,99.90
2018-05-06T03:56:59.811Z,99.90
2018-05-06T03:59:39.836Z,99.90
2018-05-06T04:15:44.110Z,99.90
2018-05-06T04:18:11.564Z,99.90
2018-05-06T04:20:39.022Z,99.90
2018-05-06T04:23:06.461Z,99.90
2018-05-06T04:25:33.931Z,99.90
2018-05-06T04:28:01.811Z,99.90
2018-05-06T04:30:29.260Z,99.90
2018-05-06T04:32:56.710Z,99.90
2018-05-06T04:35:24.161Z,99.90
2018-05-06T04:37:51.619Z,99.90
2018-05-06T04:40:19.057Z,99.90
2018-05-06T04:42:47.648Z,99.90
2018-05-06T04:45:15.093Z,99.90
2018-05-06T04:47:42.534Z,99.90
2018-05-06T04:50:10.750Z,99.90
2018-05-06T04:52:38.200Z,99.90
2018-05-06T04:55:05.656Z,99.90
2018-05-06T04:57:33.113Z,99.90
2018-05-06T05:00:00.574Z,99.90
2018-05-06T05:02:28.056Z,99.90
2018-05-06T05:04:56.111Z,99.90
2018-05-06T05:07:23.566Z,99.90
2018-05-06T05:09:51.017Z,99.90
2018-05-06T05:12:18.468Z,99.90
2018-05-06T05:14:45.924Z,99.90
2018-05-06T05:17:13.385Z,99.90
2018-05-06T05:19:40.830Z,99.90
2018-05-06T05:22:08.271Z,99.90
2018-05-06T05:24:36.487Z,99.90
2018-05-06T05:27:03.929Z,99.90
2018-05-06T05:29:31.383Z,99.90
2018-05-06T05:31:58.829Z,99.90
2018-05-06T05:34:26.316Z,99.90
2018-05-06T05:36:53.731Z,99.90
2018-05-06T05:39:21.950Z,99.90
2018-05-06T05:41:49.403Z,99.90
2018-05-06T05:44:16.857Z,99.90
2018-05-06T05:46:44.606Z,99.90
2018-05-06T05:49:12.071Z,99.90
2018-05-06T05:51:39.516Z,99.90
2018-05-06T05:54:06.967Z,99.90
2018-05-06T05:56:34.425Z,99.90
2018-05-06T05:59:01.895Z,99.90
2018-05-06T06:01:29.430Z,99.90
2018-05-06T06:03:56.800Z,99.90
2018-05-06T06:06:24.253Z,99.90
2018-05-06T06:08:51.690Z,99.90
2018-05-06T06:11:19.907Z,99.90
2018-05-06T06:13:47.351Z,99.90
2018-05-06T06:16:14.819Z,99.90
2018-05-06T06:18:42.259Z,99.90
2018-05-06T06:21:09.710Z,99.90
2018-05-06T06:23:37.154Z,99.90
2018-05-06T06:26:04.605Z,99.90
2018-05-06T06:28:32.815Z,99.90
2018-05-06T06:31:00.279Z,99.90
2018-05-06T06:33:27.723Z,99.90
2018-05-06T06:35:55.182Z,99.90
2018-05-06T06:38:22.691Z,99.90
2018-05-06T06:40:50.075Z,99.90
2018-05-06T06:43:17.547Z,99.90
2018-05-06T06:45:45.751Z,96.10
2018-05-06T06:48:13.196Z,96.10
2018-05-06T06:50:40.656Z,94.90
2018-05-06T06:53:08.096Z,94.10
2018-05-06T06:55:35.548Z,93.80
2018-05-06T06:58:03.007Z,91.60
2018-05-06T07:00:31.118Z,91.80
2018-05-06T07:02:58.580Z,91.30
2018-05-06T07:05:26.158Z,87.50
2018-05-06T07:07:54.043Z,85.90
2018-05-06T07:10:21.490Z,82.40
2018-05-06T07:12:49.715Z,76.30
2018-05-06T07:15:17.894Z,76.20
2018-05-06T07:17:45.352Z,75.30
2018-05-06T07:20:12.795Z,72.00
2018-05-06T07:22:40.259Z,72.10
2018-05-06T07:25:07.708Z,71.00
2018-05-06T07:27:35.159Z,70.50
2018-05-06T07:30:02.642Z,69.30
2018-05-06T07:32:30.073Z,69.60
2018-05-06T07:34:57.527Z,67.70
2018-05-06T07:37:25.000Z,62.70
2018-05-06T07:39:52.454Z,68.70
2018-05-06T07:42:19.904Z,65.40
2018-05-06T07:44:47.356Z,68.00
2018-05-06T07:47:14.810Z,68.90
2018-05-06T07:49:42.262Z,66.40
2018-05-06T07:52:09.724Z,61.60
2018-05-06T07:54:37.207Z,60.00
2018-05-06T07:57:04.655Z,60.40
2018-05-06T07:59:32.114Z,60.90
2018-05-06T08:01:59.898Z,61.60
2018-05-06T08:04:27.355Z,60.40
2018-05-06T08:06:54.803Z,63.70
2018-05-06T08:09:22.567Z,63.50
2018-05-06T08:11:50.014Z,63.10
2018-05-06T08:14:17.473Z,62.50
2018-05-06T08:16:44.928Z,62.30
2018-05-06T08:19:12.383Z,65.20
2018-05-06T08:21:39.822Z,64.30
2018-05-06T08:24:07.291Z,60.20
2018-05-06T08:26:34.735Z,60.90
2018-05-06T08:29:02.176Z,59.50
2018-05-06T08:31:29.622Z,58.50
2018-05-06T08:33:57.834Z,58.30
2018-05-06T08:36:25.947Z,58.20
2018-05-06T08:38:53.390Z,58.30
2018-05-06T08:41:20.837Z,58.90
2018-05-06T08:43:48.842Z,61.90
2018-05-06T08:46:17.066Z,58.30
2018-05-06T08:48:44.512Z,58.30
2018-05-06T08:51:11.970Z,58.00
2018-05-06T08:53:39.410Z,58.70
2018-05-06T08:56:06.850Z,58.70
2018-05-06T08:58:35.069Z,58.60
2018-05-06T09:01:02.519Z,58.60
2018-05-06T09:03:29.986Z,59.30
2018-05-06T09:05:57.434Z,58.60
2018-05-06T09:08:24.894Z,60.00
2018-05-06T09:10:52.366Z,58.20
2018-05-06T09:13:19.828Z,59.40
2018-05-06T09:15:47.270Z,59.00
2018-05-06T09:18:14.731Z,58.70
2018-05-06T09:20:42.168Z,57.50
2018-05-06T09:23:09.621Z,58.80
2018-05-06T09:25:37.144Z,58.60
2018-05-06T09:28:04.515Z,57.90
2018-05-06T09:30:32.722Z,59.40
2018-05-06T09:33:00.186Z,59.40
2018-05-06T09:35:28.474Z,59.30
2018-05-06T09:37:55.931Z,58.70
2018-05-06T09:40:23.381Z,57.90
2018-05-06T09:42:50.847Z,58.40
2018-05-06T09:45:18.289Z,58.90
2018-05-06T09:47:45.818Z,56.60
2018-05-06T09:50:13.277Z,55.90
2018-05-06T09:52:41.456Z,56.00
2018-05-06T09:55:08.907Z,56.50
2018-05-06T09:57:36.354Z,56.00
2018-05-06T10:00:05.333Z,55.80
2018-05-06T10:02:33.551Z,55.50
2018-05-06T10:05:02.583Z,55.30
2018-05-06T10:07:30.029Z,55.60
2018-05-06T10:09:57.911Z,55.90
2018-05-06T10:12:25.346Z,56.40
2018-05-06T10:14:52.806Z,56.40
2018-05-06T10:17:20.258Z,56.30
2018-05-06T10:19:47.701Z,58.10
2018-05-06T10:22:15.213Z,56.30
2018-05-06T10:24:42.594Z,57.30
2018-05-06T10:27:10.059Z,57.40
2018-05-06T10:29:37.519Z,57.10
2018-05-06T10:32:04.958Z,56.10
2018-05-06T10:34:32.474Z,57.30
2018-05-06T10:36:59.926Z,56.40
2018-05-06T10:39:27.372Z,57.40
2018-05-06T10:41:54.826Z,59.40
2018-05-06T10:44:22.334Z,57.50
2018-05-06T10:46:49.734Z,57.90
2018-05-06T10:49:17.240Z,59.80
2018-05-06T10:51:44.646Z,58.90
2018-05-06T10:54:12.085Z,58.60
2018-05-06T10:56:39.550Z,58.70
2018-05-06T10:59:06.995Z,58.90
2018-05-06T11:01:34.678Z,58.50
2018-05-06T11:04:02.235Z,59.30
2018-05-06T11:06:29.595Z,56.60
2018-05-06T11:08:57.046Z,58.20
2018-05-06T11:11:24.490Z,57.70
2018-05-06T11:13:52.850Z,56.30
2018-05-06T11:16:20.289Z,56.90
2018-05-06T11:18:48.514Z,57.80
2018-05-06T11:21:15.962Z,57.70
2018-05-06T11:23:43.523Z,57.40
2018-05-06T11:26:11.038Z,57.50
2018-05-06T11:28:38.415Z,57.40
2018-05-06T11:31:05.864Z,58.40
2018-05-06T11:33:33.313Z,58.20
2018-05-06T11:36:01.525Z,57.60
2018-05-06T11:38:28.971Z,57.50
2018-05-06T11:40:56.509Z,59.40
2018-05-06T11:43:23.888Z,57.30
2018-05-06T11:45:51.326Z,57.60
2018-05-06T11:48:18.776Z,55.60
2018-05-06T11:50:46.986Z,55.10
2018-05-06T11:53:14.441Z,55.00
2018-05-06T11:55:41.890Z,56.20
2018-05-06T11:58:09.338Z,58.90
2018-05-06T12:00:36.907Z,56.30
2018-05-06T12:03:04.339Z,55.90
2018-05-06T12:05:32.156Z,56.50
2018-05-06T12:07:59.591Z,56.70
2018-05-06T12:10:27.061Z,56.30
2018-05-06T12:12:54.504Z,55.30
2018-05-06T12:15:22.010Z,56.40
2018-05-06T12:17:49.386Z,57.00
2018-05-06T12:20:17.597Z,56.40
2018-05-06T12:22:45.055Z,56.30
2018-05-06T12:25:12.499Z,57.00
2018-05-06T12:27:39.965Z,56.40
2018-05-06T12:30:07.397Z,55.50
2018-05-06T12:32:34.853Z,57.40
2018-05-06T12:35:03.058Z,58.70
2018-05-06T12:37:30.513Z,58.70
2018-05-06T12:39:57.958Z,58.50
2018-05-06T12:42:25.401Z,58.20
2018-05-06T12:44:52.845Z,58.90
2018-05-06T12:47:21.462Z,58.30
2018-05-06T12:49:48.914Z,58.30
2018-05-06T12:52:16.372Z,57.30
2018-05-06T12:54:43.815Z,57.80
2018-05-06T12:57:11.257Z,58.10
2018-05-06T12:59:39.474Z,58.10
2018-05-06T13:02:06.928Z,58.10
2018-05-06T13:04:34.361Z,57.20
2018-05-06T13:07:01.827Z,57.90
2018-05-06T13:09:29.279Z,56.20
2018-05-06T13:11:56.895Z,56.70
2018-05-06T13:14:24.712Z,57.60
2018-05-06T13:16:52.142Z,58.40
2018-05-06T13:19:20.359Z,56.90
2018-05-06T13:21:47.806Z,56.80
2018-05-06T13:24:16.209Z,58.60
2018-05-06T13:26:43.662Z,58.80
2018-05-06T13:29:11.126Z,58.10
2018-05-06T13:31:38.573Z,60.20
2018-05-06T13:34:06.026Z,58.50
2018-05-06T13:36:33.486Z,58.60
2018-05-06T13:39:01.778Z,59.00
2018-05-06T13:41:29.236Z,61.50
2018-05-06T13:43:56.798Z,62.80
2018-05-06T13:46:24.937Z,58.20
2018-05-06T13:48:52.503Z,58.20
2018-05-06T13:51:19.958Z,59.80
2018-05-06T13:53:47.393Z,59.60
2018-05-06T13:56:14.846Z,59.30
2018-05-06T13:58:42.289Z,59.10
2018-05-06T14:01:10.954Z,58.30
2018-05-06T14:03:38.910Z,58.30
2018-05-06T14:06:06.675Z,59.30
2018-05-06T14:08:34.115Z,57.80
2018-05-06T14:11:01.576Z,57.50
2018-05-06T14:13:29.014Z,58.40
2018-05-06T14:15:56.480Z,57.40
2018-05-06T14:18:23.921Z,57.50
2018-05-06T14:20:51.374Z,58.60
2018-05-06T14:23:18.831Z,59.50
2018-05-06T14:25:46.272Z,56.80
2018-05-06T14:28:13.740Z,57.50
2018-05-06T14:30:41.178Z,57.10
2018-05-06T14:33:09.477Z,57.30
2018-05-06T14:35:37.350Z,57.30
2018-05-06T14:38:04.806Z,57.00
2018-05-06T14:40:32.600Z,57.60
2018-05-06T14:43:00.039Z,59.30
2018-05-06T14:45:27.497Z,57.60
2018-05-06T14:48:06.841Z,59.10
2018-05-06T14:50:34.301Z,55.70
2018-05-06T14:53:01.751Z,55.40
2018-05-06T14:55:29.199Z,56.20
2018-05-06T14:57:56.662Z,57.10
2018-05-06T15:00:24.105Z,57.80
2018-05-06T15:02:51.591Z,58.50
2018-05-06T15:05:19.034Z,57.90
2018-05-06T15:07:46.482Z,57.90
2018-05-06T15:10:13.949Z,57.60
2018-05-06T15:12:42.164Z,58.40
2018-05-06T15:15:09.614Z,58.30
2018-05-06T15:17:37.958Z,57.30
2018-05-06T15:20:05.445Z,57.30
2018-05-06T15:22:32.894Z,58.20
2018-05-06T15:25:00.354Z,58.80
2018-05-06T15:27:27.798Z,59.20
2018-05-06T15:29:55.246Z,59.90
2018-05-06T15:32:24.246Z,58.50
2018-05-06T15:34:51.694Z,58.30
2018-05-06T15:37:19.146Z,59.00
2018-05-06T15:39:46.595Z,59.60
2018-05-06T15:42:14.054Z,60.30
2018-05-06T15:44:41.502Z,62.20
2018-05-06T15:47:08.957Z,61.80
2018-05-06T15:49:36.414Z,59.40
2018-05-06T15:52:03.866Z,59.80
2018-05-06T15:54:31.314Z,60.00
2018-05-06T15:56:58.789Z,60.50
2018-05-06T15:59:27.414Z,61.50
2018-05-06T16:02:06.976Z,62.90
2018-05-06T16:04:35.184Z,61.80
2018-05-06T16:07:02.646Z,61.70
2018-05-06T16:09:30.100Z,62.20
2018-05-06T16:11:57.615Z,62.70
2018-05-06T16:14:25.057Z,62.40
2018-05-06T16:16:52.926Z,62.90
2018-05-06T16:19:20.382Z,62.60
2018-05-06T16:21:47.825Z,62.80
2018-05-06T16:24:15.273Z,64.10
2018-05-06T16:26:42.735Z,63.00
2018-05-06T16:29:10.178Z,65.10
2018-05-06T16:31:38.399Z,66.20
2018-05-06T16:34:05.865Z,66.20
2018-05-06T16:36:34.071Z,66.20
2018-05-06T16:39:02.262Z,66.20
2018-05-06T16:41:29.712Z,66.80
2018-05-06T16:43:57.202Z,67.20
2018-05-06T16:46:24.637Z,65.60
2018-05-06T16:48:52.118Z,67.70
2018-05-06T16:51:19.550Z,66.50
2018-05-06T16:53:47.318Z,67.10
2018-05-06T16:56:14.791Z,67.70
2018-05-06T16:58:42.233Z,68.60
2018-05-06T17:01:09.697Z,68.70
2018-05-06T17:03:37.134Z,68.50
2018-05-06T17:06:04.593Z,69.60
2018-05-06T17:08:32.035Z,69.00
2018-05-06T17:10:59.485Z,68.60
2018-05-06T17:13:27.260Z,69.10
2018-05-06T17:15:55.066Z,69.10
2018-05-06T17:18:22.515Z,69.50
2018-05-06T17:20:49.959Z,68.60
2018-05-06T17:23:17.406Z,70.10
2018-05-06T17:25:44.847Z,68.10
2018-05-06T17:28:12.306Z,69.20
2018-05-06T17:30:39.746Z,68.50
2018-05-06T17:33:07.193Z,68.50
2018-05-06T17:35:34.662Z,67.50
2018-05-06T17:38:02.786Z,67.80
2018-05-06T17:40:30.237Z,69.20
2018-05-06T17:42:57.686Z,69.60
2018-05-06T17:45:25.154Z,69.50
2018-05-06T17:47:52.622Z,69.00
2018-05-06T17:50:20.057Z,70.60
2018-05-06T17:52:47.513Z,69.50
2018-05-06T17:55:15.738Z,70.70
2018-05-06T17:57:44.060Z,70.50
2018-05-06T18:00:11.497Z,70.50
2018-05-06T18:02:38.948Z,70.40
2018-05-06T18:05:06.408Z,71.20
2018-05-06T18:07:33.960Z,71.40
2018-05-06T18:10:01.338Z,71.70
2018-05-06T18:12:28.785Z,72.50
2018-05-06T18:14:56.240Z,73.30
2018-05-06T18:17:23.682Z,73.40
2018-05-06T18:19:51.155Z,73.00
2018-05-06T18:22:18.602Z,74.10
2018-05-06T18:24:46.166Z,73.70
2018-05-06T18:27:13.502Z,74.40
2018-05-06T18:29:40.941Z,75.00
2018-05-06T18:32:09.658Z,75.90
2018-05-06T18:34:37.861Z,76.30
2018-05-06T18:37:05.335Z,76.20
2018-05-06T18:39:32.787Z,76.30
2018-05-06T18:42:00.233Z,76.70
2018-05-06T18:44:28.717Z,77.60
2018-05-06T18:46:56.165Z,77.60
2018-05-06T18:49:23.609Z,78.00
2018-05-06T18:51:51.078Z,77.90
2018-05-06T18:54:18.535Z,78.50
2018-05-06T18:56:46.019Z,78.90
2018-05-06T18:59:13.509Z,79.20
2018-05-06T19:01:41.771Z,80.20
2018-05-06T19:04:09.988Z,80.60
2018-05-06T19:06:37.448Z,80.50
2018-05-06T19:09:05.810Z,81.20
2018-05-06T19:11:33.271Z,81.80
2018-05-06T19:14:00.710Z,82.40
2018-05-06T19:16:28.931Z,83.30
2018-05-06T19:18:56.384Z,83.20
2018-05-06T19:21:23.827Z,83.70
2018-05-06T19:23:51.289Z,84.30
2018-05-06T19:26:18.730Z,84.60
2018-05-06T19:28:46.170Z,85.30
2018-05-06T19:31:14.390Z,86.80
2018-05-06T19:33:41.846Z,86.70
2018-05-06T19:36:09.299Z,87.60
2018-05-06T19:38:36.750Z,89.50
2018-05-06T19:41:04.210Z,90.40
2018-05-06T19:43:31.666Z,90.90
2018-05-06T19:45:59.116Z,92.10
2018-05-06T19:48:26.573Z,94.10
2018-05-06T19:50:54.027Z,96.00
2018-05-06T19:53:21.487Z,97.50
2018-05-06T19:55:48.939Z,99.70
2018-05-06T19:58:16.399Z,99.90
2018-05-06T20:00:43.869Z,99.90
2018-05-06T20:03:11.310Z,99.90
2018-05-06T20:05:38.754Z,99.90
2018-05-06T20:08:06.202Z,99.90
2018-05-06T20:10:33.697Z,99.90
2018-05-06T20:13:01.150Z,99.90
2018-05-06T20:15:28.607Z,99.90
2018-05-06T20:17:56.061Z,99.90
2018-05-06T20:20:23.510Z,99.90
2018-05-06T20:22:50.966Z,99.90
2018-05-06T20:25:18.409Z,99.90
2018-05-06T20:27:46.438Z,99.90
2018-05-06T20:30:14.285Z,99.90
2018-05-06T20:32:41.735Z,99.90
2018-05-06T20:35:09.178Z,99.90
2018-05-06T20:37:36.630Z,99.90
2018-05-06T20:40:04.826Z,99.90
2018-05-06T20:42:32.278Z,99.90
2018-05-06T20:44:59.685Z,99.90
2018-05-06T20:47:27.102Z,99.90
2018-05-06T20:49:54.528Z,99.90
2018-05-06T20:52:21.940Z,99.90
2018-05-06T20:54:50.139Z,99.90
2018-05-06T20:57:17.562Z,99.90
2018-05-06T20:59:45.761Z,99.90
2018-05-06T21:02:13.180Z,99.90
2018-05-06T21:04:40.609Z,99.90
2018-05-06T21:07:08.021Z,99.90
2018-05-06T21:09:37.016Z,99.90
2018-05-06T21:12:05.192Z,99.90
2018-05-06T21:14:32.624Z,99.90
2018-05-06T21:17:00.042Z,99.90
2018-05-06T21:19:27.467Z,99.90
2018-05-06T21:21:54.892Z,99.90
2018-05-06T21:24:22.300Z,99.90
2018-05-06T21:26:49.788Z,99.90
2018-05-06T21:29:17.213Z,99.90
2018-05-06T21:31:44.633Z,99.90
2018-05-06T21:34:12.888Z,99.90
2018-05-06T21:36:40.253Z,99.90
2018-05-06T21:39:08.547Z,99.90
2018-05-06T21:41:35.878Z,99.90
2018-05-06T21:44:03.297Z,99.90
2018-05-06T21:46:30.729Z,99.90
2018-05-06T21:48:58.162Z,99.90
2018-05-06T21:51:26.401Z,99.90
2018-05-06T21:53:53.780Z,99.90
2018-05-06T21:56:21.216Z,99.90
2018-05-06T21:58:48.639Z,99.90
2018-05-06T22:01:20.993Z,99.90
2018-05-06T22:03:48.416Z,99.90
2018-05-06T22:06:15.849Z,99.90
2018-05-06T22:08:43.284Z,99.90
2018-05-06T22:11:10.701Z,99.90
2018-05-06T22:13:39.537Z,99.90
2018-05-06T22:16:06.956Z,99.90
2018-05-06T22:18:34.381Z,99.90
2018-05-06T22:21:01.804Z,99.90
2018-05-06T22:23:29.230Z,99.90
2018-05-06T22:25:58.431Z,99.90
2018-05-06T22:28:25.844Z,99.90
2018-05-06T22:30:53.276Z,99.90
2018-05-06T22:33:20.696Z,99.90
2018-05-06T22:35:48.900Z,99.90
2018-05-06T22:38:17.256Z,99.90
2018-05-06T22:40:44.684Z,99.90
2018-05-06T22:43:12.873Z,99.90
2018-05-06T22:45:41.080Z,99.90
2018-05-06T22:48:08.513Z,99.90
2018-05-06T22:50:35.920Z,99.90
2018-05-06T22:53:03.360Z,99.90
2018-05-06T22:55:30.764Z,99.90
2018-05-06T22:57:58.956Z,99.90
2018-05-06T23:00:26.572Z,99.90
2018-05-06T23:02:54.012Z,99.90
2018-05-06T23:05:22.222Z,99.90
2018-05-06T23:07:49.641Z,99.90
2018-05-06T23:10:17.059Z,99.90
2018-05-06T23:12:44.844Z,99.90
2018-05-06T23:15:12.265Z,99.90
2018-05-06T23:17:40.440Z,99.90
2018-05-06T23:20:08.633Z,99.90
2018-05-06T23:22:36.067Z,99.90
2018-05-06T23:25:04.268Z,99.90
2018-05-06T23:27:31.672Z,99.90
2018-05-06T23:29:59.114Z,99.90
2018-05-06T23:32:26.530Z,99.90
2018-05-06T23:34:53.962Z,99.90
2018-05-06T23:37:22.145Z,99.90
2018-05-06T23:39:50.339Z,99.90
2018-05-06T23:42:17.756Z,99.90
2018-05-06T23:44:45.714Z,99.90
2018-05-06T23:47:13.148Z,99.90
2018-05-06T23:49:40.583Z,99.90
2018-05-06T23:52:08.305Z,99.90
2018-05-06T23:54:35.724Z,99.90
2018-05-06T23:57:03.153Z,99.90
2018-05-06T23:59:31.040Z,99.90
